Hartford, Maine
Current Conditions -  °F | °C
As of 1:55 PM on Thursday 30 Oct 2014 (Local Time) from KLEW Reporting Station
Scattered Clouds Scattered Clouds  
Wind Chill: 55°   Ceiling: Unl
Heat Index: 55°   Visibility: 10mi
Dew Point: 36°   Wind: 10mph
Humidity: 47%   Direction: 330°NNW
Pressure: 29.88"   Gusts: 16mph
Location:  44.2833°N, 70.3688°W
Report Text: KLEW 301755Z AUTO 33009G14KT 10SM SCT045 13/02 A2988 RMK AO1 60004 57007
Loading
Personal Weather Stations






























Interactive Weather Map
Tropical Storm Tracking
New forecast layout! Learn more

10-Day Weather Forecast

Advertisements
Track Severe Weather on mobile